sensor_id;sensor_type;location;lat;lon;timestamp;P1;durP1;ratioP1;P2;durP2;ratioP2
21315;SDS011;10817;55.820;13.030;2022-10-28T00:00:24;23.63;;;13.32;;
21315;SDS011;10817;55.820;13.030;2022-10-28T00:02:51;22.45;;;13.10;;
21315;SDS011;10817;55.820;13.030;2022-10-28T00:05:18;20.75;;;13.50;;
21315;SDS011;10817;55.820;13.030;2022-10-28T00:07:45;29.20;;;14.30;;
21315;SDS011;10817;55.820;13.030;2022-10-28T00:10:12;23.58;;;14.38;;
21315;SDS011;10817;55.820;13.030;2022-10-28T00:12:40;27.15;;;14.60;;
21315;SDS011;10817;55.820;13.030;2022-10-28T00:15:07;25.85;;;14.43;;
21315;SDS011;10817;55.820;13.030;2022-10-28T00:17:34;24.48;;;15.52;;
21315;SDS011;10817;55.820;13.030;2022-10-28T00:20:02;36.50;;;16.55;;
21315;SDS011;10817;55.820;13.030;2022-10-28T00:22:29;25.15;;;15.43;;
21315;SDS011;10817;55.820;13.030;2022-10-28T00:24:56;28.77;;;17.27;;
21315;SDS011;10817;55.820;13.030;2022-10-28T00:27:23;28.63;;;16.77;;
21315;SDS011;10817;55.820;13.030;2022-10-28T00:29:51;29.05;;;16.73;;
21315;SDS011;10817;55.820;13.030;2022-10-28T00:32:18;32.78;;;17.55;;
21315;SDS011;10817;55.820;13.030;2022-10-28T00:34:46;22.95;;;17.08;;
21315;SDS011;10817;55.820;13.030;2022-10-28T00:37:13;29.65;;;17.55;;
21315;SDS011;10817;55.820;13.030;2022-10-28T00:39:39;27.02;;;16.17;;
21315;SDS011;10817;55.820;13.030;2022-10-28T00:42:08;29.63;;;17.40;;
21315;SDS011;10817;55.820;13.030;2022-10-28T00:44:39;27.17;;;16.77;;
21315;SDS011;10817;55.820;13.030;2022-10-28T00:47:17;27.45;;;17.00;;
21315;SDS011;10817;55.820;13.030;2022-10-28T00:49:55;25.38;;;15.20;;
21315;SDS011;10817;55.820;13.030;2022-10-28T00:52:27;30.83;;;16.13;;
21315;SDS011;10817;55.820;13.030;2022-10-28T00:54:55;27.00;;;15.80;;
21315;SDS011;10817;55.820;13.030;2022-10-28T00:57:24;24.98;;;15.68;;
21315;SDS011;10817;55.820;13.030;2022-10-28T00:59:56;35.80;;;17.20;;
21315;SDS011;10817;55.820;13.030;2022-10-28T01:02:26;31.25;;;16.65;;
21315;SDS011;10817;55.820;13.030;2022-10-28T01:04:53;27.25;;;17.05;;
21315;SDS011;10817;55.820;13.030;2022-10-28T01:07:20;31.85;;;17.88;;
21315;SDS011;10817;55.820;13.030;2022-10-28T01:09:48;31.88;;;18.40;;
21315;SDS011;10817;55.820;13.030;2022-10-28T01:12:16;26.45;;;17.40;;
21315;SDS011;10817;55.820;13.030;2022-10-28T01:14:58;28.58;;;17.23;;
21315;SDS011;10817;55.820;13.030;2022-10-28T01:17:33;26.55;;;16.83;;
21315;SDS011;10817;55.820;13.030;2022-10-28T01:23:06;28.00;;;17.15;;
21315;SDS011;10817;55.820;13.030;2022-10-28T01:25:57;33.50;;;17.77;;
21315;SDS011;10817;55.820;13.030;2022-10-28T01:31:35;35.45;;;19.15;;
21315;SDS011;10817;55.820;13.030;2022-10-28T01:34:08;34.22;;;18.25;;
21315;SDS011;10817;55.820;13.030;2022-10-28T01:36:44;31.75;;;19.58;;
21315;SDS011;10817;55.820;13.030;2022-10-28T01:39:22;32.80;;;19.17;;
21315;SDS011;10817;55.820;13.030;2022-10-28T01:41:55;32.08;;;19.83;;
21315;SDS011;10817;55.820;13.030;2022-10-28T01:44:28;29.70;;;19.02;;
21315;SDS011;10817;55.820;13.030;2022-10-28T01:47:02;32.08;;;19.23;;
21315;SDS011;10817;55.820;13.030;2022-10-28T01:49:36;38.83;;;18.95;;
21315;SDS011;10817;55.820;13.030;2022-10-28T01:52:08;32.78;;;19.08;;
21315;SDS011;10817;55.820;13.030;2022-10-28T01:54:38;39.03;;;18.92;;
21315;SDS011;10817;55.820;13.030;2022-10-28T01:57:08;36.13;;;19.42;;
21315;SDS011;10817;55.820;13.030;2022-10-28T01:59:37;36.63;;;20.63;;
21315;SDS011;10817;55.820;13.030;2022-10-28T02:02:06;36.15;;;18.08;;
21315;SDS011;10817;55.820;13.030;2022-10-28T02:04:33;30.10;;;18.83;;
21315;SDS011;10817;55.820;13.030;2022-10-28T02:07:00;33.85;;;18.23;;
21315;SDS011;10817;55.820;13.030;2022-10-28T02:09:31;36.78;;;18.27;;
21315;SDS011;10817;55.820;13.030;2022-10-28T02:12:15;28.73;;;18.00;;
21315;SDS011;10817;55.820;13.030;2022-10-28T02:17:44;32.03;;;18.20;;
21315;SDS011;10817;55.820;13.030;2022-10-28T02:20:25;32.58;;;18.13;;
21315;SDS011;10817;55.820;13.030;2022-10-28T02:23:01;32.30;;;18.55;;
21315;SDS011;10817;55.820;13.030;2022-10-28T02:25:36;38.53;;;18.85;;
21315;SDS011;10817;55.820;13.030;2022-10-28T02:28:09;35.85;;;18.58;;
21315;SDS011;10817;55.820;13.030;2022-10-28T02:30:40;28.42;;;17.38;;
21315;SDS011;10817;55.820;13.030;2022-10-28T02:33:14;33.15;;;17.05;;
21315;SDS011;10817;55.820;13.030;2022-10-28T02:35:44;24.73;;;15.27;;
21315;SDS011;10817;55.820;13.030;2022-10-28T02:38:14;26.33;;;15.95;;
21315;SDS011;10817;55.820;13.030;2022-10-28T02:40:45;22.98;;;15.75;;
21315;SDS011;10817;55.820;13.030;2022-10-28T02:43:16;28.63;;;16.55;;
21315;SDS011;10817;55.820;13.030;2022-10-28T02:45:45;28.67;;;15.95;;
21315;SDS011;10817;55.820;13.030;2022-10-28T02:48:18;28.88;;;16.42;;
21315;SDS011;10817;55.820;13.030;2022-10-28T02:50:51;28.13;;;16.73;;
21315;SDS011;10817;55.820;13.030;2022-10-28T02:53:23;25.50;;;15.32;;
21315;SDS011;10817;55.820;13.030;2022-10-28T02:55:56;23.40;;;15.52;;
21315;SDS011;10817;55.820;13.030;2022-10-28T02:58:25;33.17;;;16.10;;
21315;SDS011;10817;55.820;13.030;2022-10-28T03:00:52;28.17;;;17.17;;
21315;SDS011;10817;55.820;13.030;2022-10-28T03:03:20;31.50;;;16.70;;
21315;SDS011;10817;55.820;13.030;2022-10-28T03:05:47;28.33;;;17.13;;
21315;SDS011;10817;55.820;13.030;2022-10-28T03:08:15;35.50;;;17.88;;
21315;SDS011;10817;55.820;13.030;2022-10-28T03:10:42;32.92;;;17.25;;
21315;SDS011;10817;55.820;13.030;2022-10-28T03:13:09;31.45;;;17.55;;
21315;SDS011;10817;55.820;13.030;2022-10-28T03:15:36;28.42;;;16.55;;
21315;SDS011;10817;55.820;13.030;2022-10-28T03:18:03;27.63;;;17.50;;
21315;SDS011;10817;55.820;13.030;2022-10-28T03:20:33;33.47;;;18.13;;
21315;SDS011;10817;55.820;13.030;2022-10-28T03:23:00;39.72;;;17.88;;
21315;SDS011;10817;55.820;13.030;2022-10-28T03:25:27;38.63;;;19.00;;
21315;SDS011;10817;55.820;13.030;2022-10-28T03:27:53;31.23;;;17.13;;
21315;SDS011;10817;55.820;13.030;2022-10-28T03:30:20;29.58;;;17.58;;
21315;SDS011;10817;55.820;13.030;2022-10-28T03:32:47;29.40;;;17.88;;
21315;SDS011;10817;55.820;13.030;2022-10-28T03:35:17;32.83;;;17.25;;
21315;SDS011;10817;55.820;13.030;2022-10-28T03:37:45;33.78;;;18.15;;
21315;SDS011;10817;55.820;13.030;2022-10-28T03:40:12;28.25;;;18.10;;
21315;SDS011;10817;55.820;13.030;2022-10-28T03:42:39;26.30;;;18.63;;
21315;SDS011;10817;55.820;13.030;2022-10-28T03:45:09;32.95;;;19.60;;
21315;SDS011;10817;55.820;13.030;2022-10-28T03:47:36;36.92;;;18.77;;
21315;SDS011;10817;55.820;13.030;2022-10-28T03:50:03;30.70;;;19.70;;
21315;SDS011;10817;55.820;13.030;2022-10-28T03:52:31;29.90;;;19.30;;
21315;SDS011;10817;55.820;13.030;2022-10-28T03:54:59;37.28;;;20.88;;
21315;SDS011;10817;55.820;13.030;2022-10-28T03:57:28;34.83;;;21.08;;
21315;SDS011;10817;55.820;13.030;2022-10-28T03:59:56;41.05;;;21.42;;
21315;SDS011;10817;55.820;13.030;2022-10-28T04:02:23;45.25;;;22.88;;
21315;SDS011;10817;55.820;13.030;2022-10-28T04:04:50;36.78;;;21.92;;
21315;SDS011;10817;55.820;13.030;2022-10-28T04:07:17;40.17;;;23.23;;
21315;SDS011;10817;55.820;13.030;2022-10-28T04:09:44;34.45;;;22.42;;
21315;SDS011;10817;55.820;13.030;2022-10-28T04:12:15;40.65;;;24.02;;
21315;SDS011;10817;55.820;13.030;2022-10-28T04:14:42;37.40;;;22.08;;
21315;SDS011;10817;55.820;13.030;2022-10-28T04:17:09;39.03;;;23.38;;
21315;SDS011;10817;55.820;13.030;2022-10-28T04:19:36;44.28;;;24.50;;
21315;SDS011;10817;55.820;13.030;2022-10-28T04:22:02;41.90;;;24.15;;
21315;SDS011;10817;55.820;13.030;2022-10-28T04:24:29;47.00;;;24.38;;
21315;SDS011;10817;55.820;13.030;2022-10-28T04:26:56;48.22;;;24.60;;
21315;SDS011;10817;55.820;13.030;2022-10-28T04:29:24;41.65;;;24.48;;
21315;SDS011;10817;55.820;13.030;2022-10-28T04:31:51;42.20;;;24.42;;
21315;SDS011;10817;55.820;13.030;2022-10-28T04:34:18;42.17;;;24.85;;
21315;SDS011;10817;55.820;13.030;2022-10-28T04:36:45;43.90;;;25.10;;
21315;SDS011;10817;55.820;13.030;2022-10-28T04:39:13;40.03;;;25.10;;
21315;SDS011;10817;55.820;13.030;2022-10-28T04:41:40;37.60;;;24.25;;
21315;SDS011;10817;55.820;13.030;2022-10-28T04:44:07;52.55;;;27.70;;
21315;SDS011;10817;55.820;13.030;2022-10-28T04:46:35;50.92;;;26.27;;
21315;SDS011;10817;55.820;13.030;2022-10-28T04:49:02;54.55;;;27.30;;
21315;SDS011;10817;55.820;13.030;2022-10-28T04:51:29;47.13;;;26.45;;
21315;SDS011;10817;55.820;13.030;2022-10-28T04:53:56;49.67;;;27.00;;
21315;SDS011;10817;55.820;13.030;2022-10-28T04:56:23;50.75;;;28.33;;
21315;SDS011;10817;55.820;13.030;2022-10-28T04:58:50;52.85;;;29.13;;
21315;SDS011;10817;55.820;13.030;2022-10-28T05:01:18;46.33;;;27.88;;
21315;SDS011;10817;55.820;13.030;2022-10-28T05:03:47;47.55;;;28.38;;
21315;SDS011;10817;55.820;13.030;2022-10-28T05:06:13;58.00;;;29.80;;
21315;SDS011;10817;55.820;13.030;2022-10-28T05:08:40;43.85;;;27.58;;
21315;SDS011;10817;55.820;13.030;2022-10-28T05:11:07;53.67;;;28.42;;
21315;SDS011;10817;55.820;13.030;2022-10-28T05:13:34;52.05;;;29.23;;
21315;SDS011;10817;55.820;13.030;2022-10-28T05:16:02;58.10;;;31.20;;
21315;SDS011;10817;55.820;13.030;2022-10-28T05:18:29;51.55;;;30.02;;
21315;SDS011;10817;55.820;13.030;2022-10-28T05:20:57;59.45;;;29.58;;
21315;SDS011;10817;55.820;13.030;2022-10-28T05:23:24;59.63;;;30.90;;
21315;SDS011;10817;55.820;13.030;2022-10-28T05:25:51;56.70;;;29.98;;
21315;SDS011;10817;55.820;13.030;2022-10-28T05:28:18;54.78;;;31.00;;
21315;SDS011;10817;55.820;13.030;2022-10-28T05:30:45;59.17;;;31.10;;
21315;SDS011;10817;55.820;13.030;2022-10-28T05:33:12;52.45;;;29.88;;
21315;SDS011;10817;55.820;13.030;2022-10-28T05:35:39;53.63;;;31.48;;
21315;SDS011;10817;55.820;13.030;2022-10-28T05:38:07;54.67;;;30.17;;
21315;SDS011;10817;55.820;13.030;2022-10-28T05:40:34;58.58;;;30.60;;
21315;SDS011;10817;55.820;13.030;2022-10-28T05:43:02;62.88;;;31.23;;
21315;SDS011;10817;55.820;13.030;2022-10-28T05:45:29;58.03;;;30.80;;
21315;SDS011;10817;55.820;13.030;2022-10-28T05:47:56;48.42;;;28.38;;
21315;SDS011;10817;55.820;13.030;2022-10-28T05:50:23;55.40;;;29.33;;
21315;SDS011;10817;55.820;13.030;2022-10-28T05:52:50;44.88;;;26.63;;
21315;SDS011;10817;55.820;13.030;2022-10-28T05:55:20;43.58;;;24.70;;
21315;SDS011;10817;55.820;13.030;2022-10-28T05:57:49;50.67;;;27.95;;
21315;SDS011;10817;55.820;13.030;2022-10-28T06:00:17;54.08;;;27.42;;
21315;SDS011;10817;55.820;13.030;2022-10-28T06:02:46;53.67;;;27.70;;
21315;SDS011;10817;55.820;13.030;2022-10-28T06:05:13;49.60;;;25.60;;
21315;SDS011;10817;55.820;13.030;2022-10-28T06:07:40;49.78;;;27.02;;
21315;SDS011;10817;55.820;13.030;2022-10-28T06:10:09;51.65;;;26.65;;
21315;SDS011;10817;55.820;13.030;2022-10-28T06:12:38;47.90;;;26.02;;
21315;SDS011;10817;55.820;13.030;2022-10-28T06:15:05;45.45;;;25.80;;
21315;SDS011;10817;55.820;13.030;2022-10-28T06:17:33;47.70;;;25.10;;
21315;SDS011;10817;55.820;13.030;2022-10-28T06:20:00;50.58;;;25.17;;
21315;SDS011;10817;55.820;13.030;2022-10-28T06:22:27;40.70;;;23.52;;
21315;SDS011;10817;55.820;13.030;2022-10-28T06:24:54;42.63;;;23.75;;
21315;SDS011;10817;55.820;13.030;2022-10-28T06:27:20;42.13;;;24.13;;
21315;SDS011;10817;55.820;13.030;2022-10-28T06:29:49;41.65;;;23.77;;
21315;SDS011;10817;55.820;13.030;2022-10-28T06:32:15;43.63;;;24.17;;
21315;SDS011;10817;55.820;13.030;2022-10-28T06:34:42;42.33;;;22.42;;
21315;SDS011;10817;55.820;13.030;2022-10-28T06:37:09;40.25;;;23.95;;
21315;SDS011;10817;55.820;13.030;2022-10-28T06:39:36;40.88;;;23.63;;
21315;SDS011;10817;55.820;13.030;2022-10-28T06:42:04;45.55;;;23.08;;
21315;SDS011;10817;55.820;13.030;2022-10-28T06:44:31;46.17;;;25.05;;
21315;SDS011;10817;55.820;13.030;2022-10-28T06:46:59;50.38;;;26.95;;
21315;SDS011;10817;55.820;13.030;2022-10-28T06:49:26;55.55;;;28.05;;
21315;SDS011;10817;55.820;13.030;2022-10-28T06:51:53;66.75;;;28.98;;
21315;SDS011;10817;55.820;13.030;2022-10-28T06:54:20;53.30;;;28.75;;
21315;SDS011;10817;55.820;13.030;2022-10-28T06:56:47;54.50;;;28.92;;
21315;SDS011;10817;55.820;13.030;2022-10-28T06:59:14;63.15;;;30.23;;
21315;SDS011;10817;55.820;13.030;2022-10-28T07:01:41;62.15;;;30.13;;
21315;SDS011;10817;55.820;13.030;2022-10-28T07:04:10;65.05;;;29.13;;
21315;SDS011;10817;55.820;13.030;2022-10-28T07:06:38;63.63;;;29.17;;
21315;SDS011;10817;55.820;13.030;2022-10-28T07:09:05;63.97;;;31.00;;
21315;SDS011;10817;55.820;13.030;2022-10-28T07:11:33;63.72;;;30.65;;
21315;SDS011;10817;55.820;13.030;2022-10-28T07:14:00;65.63;;;31.33;;
21315;SDS011;10817;55.820;13.030;2022-10-28T07:16:27;58.28;;;31.33;;
21315;SDS011;10817;55.820;13.030;2022-10-28T07:18:57;65.45;;;31.13;;
21315;SDS011;10817;55.820;13.030;2022-10-28T07:21:25;74.35;;;31.98;;
21315;SDS011;10817;55.820;13.030;2022-10-28T07:23:55;58.42;;;31.90;;
21315;SDS011;10817;55.820;13.030;2022-10-28T07:26:22;66.20;;;32.85;;
21315;SDS011;10817;55.820;13.030;2022-10-28T07:28:49;64.32;;;32.60;;
21315;SDS011;10817;55.820;13.030;2022-10-28T07:31:16;62.63;;;31.35;;
21315;SDS011;10817;55.820;13.030;2022-10-28T07:33:43;67.75;;;33.13;;
21315;SDS011;10817;55.820;13.030;2022-10-28T07:36:10;61.63;;;31.75;;
21315;SDS011;10817;55.820;13.030;2022-10-28T07:38:39;64.32;;;31.85;;
21315;SDS011;10817;55.820;13.030;2022-10-28T07:41:06;58.45;;;31.05;;
21315;SDS011;10817;55.820;13.030;2022-10-28T07:43:35;55.85;;;30.77;;
21315;SDS011;10817;55.820;13.030;2022-10-28T07:46:02;56.95;;;31.92;;
21315;SDS011;10817;55.820;13.030;2022-10-28T07:48:29;59.60;;;29.83;;
21315;SDS011;10817;55.820;13.030;2022-10-28T07:50:58;56.50;;;30.52;;
21315;SDS011;10817;55.820;13.030;2022-10-28T07:53:26;61.45;;;30.55;;
21315;SDS011;10817;55.820;13.030;2022-10-28T07:55:55;60.15;;;28.33;;
21315;SDS011;10817;55.820;13.030;2022-10-28T07:58:22;54.25;;;28.60;;
21315;SDS011;10817;55.820;13.030;2022-10-28T08:00:49;48.58;;;27.52;;
21315;SDS011;10817;55.820;13.030;2022-10-28T08:03:16;52.05;;;26.25;;
21315;SDS011;10817;55.820;13.030;2022-10-28T08:05:43;51.47;;;26.52;;
21315;SDS011;10817;55.820;13.030;2022-10-28T08:08:10;45.10;;;26.08;;
21315;SDS011;10817;55.820;13.030;2022-10-28T08:10:40;43.28;;;25.52;;
21315;SDS011;10817;55.820;13.030;2022-10-28T08:13:09;42.03;;;23.88;;
21315;SDS011;10817;55.820;13.030;2022-10-28T08:15:38;44.15;;;22.65;;
21315;SDS011;10817;55.820;13.030;2022-10-28T08:18:05;38.83;;;22.23;;
21315;SDS011;10817;55.820;13.030;2022-10-28T08:20:32;35.28;;;20.70;;
21315;SDS011;10817;55.820;13.030;2022-10-28T08:22:59;30.15;;;18.83;;
21315;SDS011;10817;55.820;13.030;2022-10-28T08:25:26;33.22;;;18.92;;
21315;SDS011;10817;55.820;13.030;2022-10-28T08:27:53;38.90;;;18.40;;
21315;SDS011;10817;55.820;13.030;2022-10-28T08:30:21;32.53;;;17.55;;
21315;SDS011;10817;55.820;13.030;2022-10-28T08:32:47;28.33;;;17.42;;
21315;SDS011;10817;55.820;13.030;2022-10-28T08:35:14;26.70;;;16.27;;
21315;SDS011;10817;55.820;13.030;2022-10-28T08:37:41;27.02;;;16.13;;
21315;SDS011;10817;55.820;13.030;2022-10-28T08:40:11;27.13;;;16.23;;
21315;SDS011;10817;55.820;13.030;2022-10-28T08:42:40;28.40;;;16.02;;
21315;SDS011;10817;55.820;13.030;2022-10-28T08:45:14;28.65;;;15.93;;
21315;SDS011;10817;55.820;13.030;2022-10-28T08:48:04;32.25;;;16.85;;
21315;SDS011;10817;55.820;13.030;2022-10-28T08:50:42;21.85;;;15.48;;
21315;SDS011;10817;55.820;13.030;2022-10-28T08:53:13;28.90;;;14.50;;
21315;SDS011;10817;55.820;13.030;2022-10-28T08:55:45;23.00;;;13.77;;
21315;SDS011;10817;55.820;13.030;2022-10-28T08:58:15;29.17;;;12.65;;
21315;SDS011;10817;55.820;13.030;2022-10-28T09:00:49;25.73;;;12.25;;
21315;SDS011;10817;55.820;13.030;2022-10-28T09:03:20;20.73;;;11.90;;
21315;SDS011;10817;55.820;13.030;2022-10-28T09:05:48;21.33;;;10.45;;
21315;SDS011;10817;55.820;13.030;2022-10-28T09:08:27;20.15;;;10.75;;
21315;SDS011;10817;55.820;13.030;2022-10-28T09:11:00;18.10;;;9.48;;
21315;SDS011;10817;55.820;13.030;2022-10-28T09:13:37;17.02;;;9.07;;
21315;SDS011;10817;55.820;13.030;2022-10-28T09:16:14;18.00;;;9.43;;
21315;SDS011;10817;55.820;13.030;2022-10-28T09:18:49;16.13;;;9.23;;
21315;SDS011;10817;55.820;13.030;2022-10-28T09:21:19;16.67;;;8.98;;
21315;SDS011;10817;55.820;13.030;2022-10-28T09:23:54;13.68;;;8.25;;
21315;SDS011;10817;55.820;13.030;2022-10-28T09:26:25;15.68;;;9.13;;
21315;SDS011;10817;55.820;13.030;2022-10-28T09:29:01;14.45;;;8.82;;
21315;SDS011;10817;55.820;13.030;2022-10-28T09:31:38;20.05;;;9.05;;
21315;SDS011;10817;55.820;13.030;2022-10-28T09:34:09;16.85;;;8.52;;
21315;SDS011;10817;55.820;13.030;2022-10-28T09:36:44;18.90;;;9.48;;
21315;SDS011;10817;55.820;13.030;2022-10-28T09:39:15;16.23;;;8.82;;
21315;SDS011;10817;55.820;13.030;2022-10-28T09:41:45;15.95;;;9.02;;
21315;SDS011;10817;55.820;13.030;2022-10-28T09:44:14;26.55;;;9.75;;
21315;SDS011;10817;55.820;13.030;2022-10-28T09:46:49;21.10;;;9.10;;
21315;SDS011;10817;55.820;13.030;2022-10-28T09:49:20;15.90;;;8.95;;
21315;SDS011;10817;55.820;13.030;2022-10-28T09:51:51;17.17;;;7.90;;
21315;SDS011;10817;55.820;13.030;2022-10-28T09:54:25;16.88;;;8.52;;
21315;SDS011;10817;55.820;13.030;2022-10-28T09:56:58;15.38;;;8.90;;
21315;SDS011;10817;55.820;13.030;2022-10-28T09:59:25;16.20;;;7.97;;
21315;SDS011;10817;55.820;13.030;2022-10-28T10:01:53;11.10;;;6.38;;
21315;SDS011;10817;55.820;13.030;2022-10-28T10:04:21;14.95;;;6.80;;
21315;SDS011;10817;55.820;13.030;2022-10-28T10:06:50;17.73;;;6.97;;
21315;SDS011;10817;55.820;13.030;2022-10-28T10:09:21;16.65;;;6.93;;
21315;SDS011;10817;55.820;13.030;2022-10-28T10:11:51;15.63;;;6.80;;
21315;SDS011;10817;55.820;13.030;2022-10-28T10:14:22;15.55;;;6.63;;
21315;SDS011;10817;55.820;13.030;2022-10-28T10:16:55;15.90;;;7.03;;
21315;SDS011;10817;55.820;13.030;2022-10-28T10:19:25;16.02;;;8.45;;
21315;SDS011;10817;55.820;13.030;2022-10-28T10:21:52;19.30;;;8.65;;
21315;SDS011;10817;55.820;13.030;2022-10-28T10:24:23;13.18;;;8.10;;
21315;SDS011;10817;55.820;13.030;2022-10-28T10:26:54;12.63;;;7.63;;
21315;SDS011;10817;55.820;13.030;2022-10-28T10:29:22;14.00;;;7.43;;
21315;SDS011;10817;55.820;13.030;2022-10-28T10:32:03;17.48;;;7.25;;
21315;SDS011;10817;55.820;13.030;2022-10-28T10:34:33;13.52;;;7.95;;
21315;SDS011;10817;55.820;13.030;2022-10-28T10:37:01;16.30;;;8.25;;
21315;SDS011;10817;55.820;13.030;2022-10-28T10:39:31;15.95;;;8.32;;
21315;SDS011;10817;55.820;13.030;2022-10-28T10:42:01;17.77;;;8.23;;
21315;SDS011;10817;55.820;13.030;2022-10-28T10:44:29;17.67;;;8.95;;
21315;SDS011;10817;55.820;13.030;2022-10-28T10:49:46;17.25;;;9.15;;
21315;SDS011;10817;55.820;13.030;2022-10-28T10:52:16;14.57;;;7.95;;
21315;SDS011;10817;55.820;13.030;2022-10-28T10:54:57;13.05;;;8.65;;
21315;SDS011;10817;55.820;13.030;2022-10-28T10:57:26;12.18;;;8.27;;
21315;SDS011;10817;55.820;13.030;2022-10-28T10:59:54;19.83;;;9.38;;
21315;SDS011;10817;55.820;13.030;2022-10-28T11:02:25;13.60;;;7.97;;
21315;SDS011;10817;55.820;13.030;2022-10-28T11:04:56;14.98;;;8.23;;
21315;SDS011;10817;55.820;13.030;2022-10-28T11:07:27;16.10;;;9.00;;
21315;SDS011;10817;55.820;13.030;2022-10-28T11:09:56;19.88;;;9.15;;
21315;SDS011;10817;55.820;13.030;2022-10-28T11:12:24;17.83;;;9.30;;
21315;SDS011;10817;55.820;13.030;2022-10-28T11:14:53;16.73;;;9.65;;
21315;SDS011;10817;55.820;13.030;2022-10-28T11:17:25;15.75;;;9.15;;
21315;SDS011;10817;55.820;13.030;2022-10-28T11:19:54;14.57;;;9.00;;
21315;SDS011;10817;55.820;13.030;2022-10-28T11:22:28;16.58;;;8.18;;
21315;SDS011;10817;55.820;13.030;2022-10-28T11:25:18;13.30;;;8.27;;
21315;SDS011;10817;55.820;13.030;2022-10-28T11:27:58;13.73;;;8.30;;
21315;SDS011;10817;55.820;13.030;2022-10-28T11:30:38;19.73;;;8.27;;
21315;SDS011;10817;55.820;13.030;2022-10-28T11:33:16;17.05;;;8.30;;
21315;SDS011;10817;55.820;13.030;2022-10-28T11:35:47;14.25;;;9.10;;
21315;SDS011;10817;55.820;13.030;2022-10-28T11:41:15;11.52;;;7.47;;
21315;SDS011;10817;55.820;13.030;2022-10-28T11:43:53;14.35;;;8.15;;
21315;SDS011;10817;55.820;13.030;2022-10-28T11:46:25;22.33;;;9.15;;
21315;SDS011;10817;55.820;13.030;2022-10-28T11:49:25;19.77;;;8.48;;
21315;SDS011;10817;55.820;13.030;2022-10-28T11:52:06;13.82;;;8.13;;
21315;SDS011;10817;55.820;13.030;2022-10-28T11:54:44;15.20;;;8.10;;
21315;SDS011;10817;55.820;13.030;2022-10-28T11:57:23;16.15;;;8.48;;
21315;SDS011;10817;55.820;13.030;2022-10-28T12:00:02;14.55;;;8.95;;
21315;SDS011;10817;55.820;13.030;2022-10-28T12:02:46;22.63;;;9.55;;
21315;SDS011;10817;55.820;13.030;2022-10-28T12:05:26;22.70;;;10.02;;
21315;SDS011;10817;55.820;13.030;2022-10-28T12:08:03;17.05;;;9.30;;
21315;SDS011;10817;55.820;13.030;2022-10-28T12:13:35;19.35;;;8.40;;
21315;SDS011;10817;55.820;13.030;2022-10-28T12:16:09;20.77;;;8.75;;
21315;SDS011;10817;55.820;13.030;2022-10-28T12:18:44;18.48;;;9.02;;
21315;SDS011;10817;55.820;13.030;2022-10-28T12:21:18;14.25;;;8.23;;
21315;SDS011;10817;55.820;13.030;2022-10-28T12:23:52;17.27;;;9.90;;
21315;SDS011;10817;55.820;13.030;2022-10-28T12:26:23;21.17;;;11.45;;
21315;SDS011;10817;55.820;13.030;2022-10-28T12:28:57;18.15;;;9.32;;
21315;SDS011;10817;55.820;13.030;2022-10-28T12:31:27;23.65;;;9.65;;
21315;SDS011;10817;55.820;13.030;2022-10-28T12:33:58;18.42;;;8.27;;
21315;SDS011;10817;55.820;13.030;2022-10-28T12:36:30;17.42;;;9.13;;
21315;SDS011;10817;55.820;13.030;2022-10-28T12:39:00;17.08;;;9.57;;
21315;SDS011;10817;55.820;13.030;2022-10-28T12:41:39;16.00;;;10.10;;
21315;SDS011;10817;55.820;13.030;2022-10-28T12:44:10;15.10;;;9.95;;
21315;SDS011;10817;55.820;13.030;2022-10-28T12:46:43;19.17;;;9.38;;
21315;SDS011;10817;55.820;13.030;2022-10-28T12:49:17;17.92;;;9.23;;
21315;SDS011;10817;55.820;13.030;2022-10-28T12:51:52;17.08;;;8.73;;
21315;SDS011;10817;55.820;13.030;2022-10-28T12:54:20;19.35;;;9.07;;
21315;SDS011;10817;55.820;13.030;2022-10-28T12:56:55;19.30;;;8.55;;
21315;SDS011;10817;55.820;13.030;2022-10-28T12:59:36;19.88;;;9.57;;
21315;SDS011;10817;55.820;13.030;2022-10-28T13:02:10;23.20;;;8.88;;
21315;SDS011;10817;55.820;13.030;2022-10-28T13:04:42;15.35;;;7.85;;
21315;SDS011;10817;55.820;13.030;2022-10-28T13:07:15;13.23;;;7.95;;
21315;SDS011;10817;55.820;13.030;2022-10-28T13:09:58;18.70;;;9.23;;
21315;SDS011;10817;55.820;13.030;2022-10-28T13:15:37;19.50;;;8.73;;
21315;SDS011;10817;55.820;13.030;2022-10-28T13:18:25;18.73;;;9.10;;
21315;SDS011;10817;55.820;13.030;2022-10-28T13:21:14;17.27;;;9.38;;
21315;SDS011;10817;55.820;13.030;2022-10-28T13:23:55;28.75;;;9.77;;
21315;SDS011;10817;55.820;13.030;2022-10-28T13:26:28;21.95;;;9.50;;
21315;SDS011;10817;55.820;13.030;2022-10-28T13:28:58;17.48;;;8.52;;
21315;SDS011;10817;55.820;13.030;2022-10-28T13:31:34;20.77;;;8.90;;
21315;SDS011;10817;55.820;13.030;2022-10-28T13:34:04;22.08;;;9.02;;
21315;SDS011;10817;55.820;13.030;2022-10-28T13:36:32;20.90;;;9.45;;
21315;SDS011;10817;55.820;13.030;2022-10-28T13:39:05;25.70;;;9.32;;
21315;SDS011;10817;55.820;13.030;2022-10-28T13:41:46;20.75;;;8.65;;
21315;SDS011;10817;55.820;13.030;2022-10-28T13:44:21;17.73;;;8.98;;
21315;SDS011;10817;55.820;13.030;2022-10-28T13:47:03;14.32;;;8.38;;
21315;SDS011;10817;55.820;13.030;2022-10-28T13:56:15;17.90;;;8.55;;
21315;SDS011;10817;55.820;13.030;2022-10-28T13:58:58;17.25;;;9.40;;
21315;SDS011;10817;55.820;13.030;2022-10-28T14:01:37;21.23;;;8.85;;
21315;SDS011;10817;55.820;13.030;2022-10-28T14:04:19;23.25;;;9.10;;
21315;SDS011;10817;55.820;13.030;2022-10-28T14:06:48;18.92;;;9.52;;
21315;SDS011;10817;55.820;13.030;2022-10-28T14:09:26;22.00;;;10.15;;
21315;SDS011;10817;55.820;13.030;2022-10-28T14:12:10;20.02;;;10.52;;
21315;SDS011;10817;55.820;13.030;2022-10-28T14:17:44;23.52;;;10.25;;
21315;SDS011;10817;55.820;13.030;2022-10-28T14:20:21;24.05;;;10.68;;
21315;SDS011;10817;55.820;13.030;2022-10-28T14:22:51;23.92;;;9.75;;
21315;SDS011;10817;55.820;13.030;2022-10-28T14:31:40;19.02;;;9.85;;
21315;SDS011;10817;55.820;13.030;2022-10-28T14:37:08;24.88;;;11.73;;
21315;SDS011;10817;55.820;13.030;2022-10-28T14:40:07;25.15;;;11.73;;
21315;SDS011;10817;55.820;13.030;2022-10-28T14:42:50;21.52;;;12.18;;
21315;SDS011;10817;55.820;13.030;2022-10-28T14:45:29;25.42;;;11.73;;
21315;SDS011;10817;55.820;13.030;2022-10-28T14:50:51;26.52;;;13.23;;
21315;SDS011;10817;55.820;13.030;2022-10-28T14:53:21;25.48;;;13.68;;
21315;SDS011;10817;55.820;13.030;2022-10-28T14:55:55;25.27;;;13.65;;
21315;SDS011;10817;55.820;13.030;2022-10-28T14:58:27;33.05;;;14.05;;
21315;SDS011;10817;55.820;13.030;2022-10-28T15:01:03;30.35;;;14.70;;
21315;SDS011;10817;55.820;13.030;2022-10-28T15:03:44;36.13;;;16.05;;
21315;SDS011;10817;55.820;13.030;2022-10-28T15:06:33;33.17;;;16.35;;
21315;SDS011;10817;55.820;13.030;2022-10-28T15:09:11;28.75;;;16.00;;
21315;SDS011;10817;55.820;13.030;2022-10-28T15:11:43;28.85;;;17.08;;
21315;SDS011;10817;55.820;13.030;2022-10-28T15:14:12;31.30;;;17.88;;
21315;SDS011;10817;55.820;13.030;2022-10-28T15:16:46;38.17;;;17.98;;